createdAt,value
2018-08-25T00:00:14.608Z,2.57
2018-08-25T00:02:42.682Z,2.50
2018-08-25T00:05:10.764Z,2.70
2018-08-25T00:07:38.846Z,2.10
2018-08-25T00:10:07.224Z,2.77
2018-08-25T00:12:35.281Z,2.60
2018-08-25T00:15:03.371Z,2.57
2018-08-25T00:17:31.444Z,2.43
2018-08-25T00:19:59.521Z,2.30
2018-08-25T00:22:27.605Z,3.00
2018-08-25T00:24:55.684Z,2.13
2018-08-25T00:27:23.752Z,2.40
2018-08-25T00:29:51.832Z,2.13
2018-08-25T00:32:19.901Z,2.00
2018-08-25T00:34:47.981Z,2.30
2018-08-25T00:37:16.057Z,2.23
2018-08-25T00:39:44.354Z,2.23
2018-08-25T00:42:12.429Z,2.50
2018-08-25T00:44:40.539Z,2.37
2018-08-25T00:47:08.619Z,2.40
2018-08-25T00:49:36.688Z,2.30
2018-08-25T00:52:04.770Z,2.63
2018-08-25T00:54:32.857Z,2.20
2018-08-25T00:57:00.942Z,2.80
2018-08-25T00:59:29.117Z,2.90
2018-08-25T01:01:57.145Z,2.20
2018-08-25T01:04:25.214Z,2.33
2018-08-25T01:06:53.296Z,2.23
2018-08-25T01:09:21.374Z,2.40
2018-08-25T01:11:49.457Z,2.50
2018-08-25T01:14:17.567Z,2.37
2018-08-25T01:16:45.621Z,2.57
2018-08-25T01:19:13.713Z,1.97
2018-08-25T01:21:41.797Z,2.40
2018-08-25T01:24:09.890Z,2.13
2018-08-25T01:26:38.013Z,2.70
2018-08-25T01:29:06.126Z,1.97
2018-08-25T01:31:34.214Z,1.80
2018-08-25T01:34:02.399Z,2.33
2018-08-25T01:36:30.482Z,1.90
2018-08-25T01:38:58.566Z,1.90
2018-08-25T01:41:26.666Z,1.93
2018-08-25T01:43:54.733Z,1.97
2018-08-25T01:46:22.813Z,2.00
2018-08-25T01:48:50.897Z,2.50
2018-08-25T01:51:18.991Z,2.63
2018-08-25T01:53:47.066Z,3.33
2018-08-25T01:56:15.158Z,2.13
2018-08-25T01:58:43.235Z,1.80
2018-08-25T02:01:11.334Z,2.43
2018-08-25T02:03:39.412Z,2.23
2018-08-25T02:06:07.528Z,2.00
2018-08-25T02:08:35.592Z,2.40
2018-08-25T02:11:03.677Z,2.30
2018-08-25T02:13:31.760Z,2.10
2018-08-25T02:16:00.028Z,1.80
2018-08-25T02:18:28.318Z,2.70
2018-08-25T02:20:56.421Z,2.00
2018-08-25T02:23:24.496Z,2.20
2018-08-25T02:25:52.575Z,2.50
2018-08-25T02:28:20.692Z,2.13
2018-08-25T02:30:48.724Z,2.00
2018-08-25T02:33:16.810Z,2.20
2018-08-25T02:35:51.409Z,2.63
2018-08-25T02:38:19.502Z,2.20
2018-08-25T02:40:47.902Z,2.33
2018-08-25T02:43:16.182Z,2.63
2018-08-25T02:45:44.269Z,2.23
2018-08-25T02:48:12.370Z,2.47
2018-08-25T02:50:40.445Z,2.00
2018-08-25T02:53:08.530Z,2.90
2018-08-25T02:55:36.613Z,1.73
2018-08-25T02:58:04.700Z,1.97
2018-08-25T03:00:32.786Z,2.30
2018-08-25T03:03:01.045Z,2.50
2018-08-25T03:05:29.121Z,2.30
2018-08-25T03:07:57.201Z,2.03
2018-08-25T03:10:25.293Z,2.10
2018-08-25T03:12:53.388Z,2.43
2018-08-25T03:15:21.626Z,2.67
2018-08-25T03:17:49.705Z,2.33
2018-08-25T03:20:17.785Z,1.83
2018-08-25T03:22:45.882Z,2.60
2018-08-25T03:25:13.953Z,2.33
2018-08-25T03:27:42.041Z,2.27
2018-08-25T03:30:10.111Z,2.50
2018-08-25T03:32:38.191Z,2.63
2018-08-25T03:35:06.293Z,2.37
2018-08-25T03:37:34.399Z,2.03
2018-08-25T03:40:02.474Z,2.50
2018-08-25T03:42:30.550Z,2.53
2018-08-25T03:44:58.626Z,2.53
2018-08-25T03:47:26.706Z,2.23
2018-08-25T03:49:54.772Z,2.50
2018-08-25T03:52:22.850Z,2.30
2018-08-25T03:54:50.921Z,2.23
2018-08-25T03:57:19.197Z,2.30
2018-08-25T03:59:47.262Z,2.40
2018-08-25T04:02:15.361Z,2.10
2018-08-25T04:04:43.444Z,2.20
2018-08-25T04:07:11.516Z,2.40
2018-08-25T04:09:39.591Z,2.17
2018-08-25T04:12:07.669Z,2.23
2018-08-25T04:14:35.733Z,2.03
2018-08-25T04:17:03.813Z,2.37
2018-08-25T04:19:31.876Z,2.20
2018-08-25T04:21:59.957Z,2.27
2018-08-25T04:24:28.043Z,2.50
2018-08-25T04:26:56.134Z,2.73
2018-08-25T04:29:24.193Z,2.43
2018-08-25T04:31:52.277Z,2.87
2018-08-25T04:34:20.345Z,3.27
2018-08-25T04:36:48.420Z,2.33
2018-08-25T04:39:16.484Z,2.43
2018-08-25T04:41:44.565Z,2.60
2018-08-25T04:44:12.638Z,3.63
2018-08-25T04:46:40.700Z,2.40
2018-08-25T04:49:08.818Z,2.67
2018-08-25T04:51:36.893Z,2.77
2018-08-25T04:54:04.985Z,2.50
2018-08-25T04:56:33.074Z,2.60
2018-08-25T04:59:01.153Z,2.77
2018-08-25T05:01:29.261Z,3.27
2018-08-25T05:03:57.336Z,2.90
2018-08-25T05:06:25.418Z,2.80
2018-08-25T05:08:53.502Z,2.90
2018-08-25T05:11:21.585Z,3.23
2018-08-25T05:13:49.665Z,2.60
2018-08-25T05:16:17.738Z,2.53
2018-08-25T05:18:45.845Z,2.90
2018-08-25T05:21:13.920Z,2.73
2018-08-25T05:23:42.006Z,2.63
2018-08-25T05:26:10.080Z,2.80
2018-08-25T05:28:38.184Z,2.40
2018-08-25T05:31:06.358Z,2.60
2018-08-25T05:33:34.440Z,3.00
2018-08-25T05:36:02.531Z,2.90
2018-08-25T05:38:30.829Z,3.10
2018-08-25T05:40:59.021Z,3.73
2018-08-25T05:43:27.113Z,3.10
2018-08-25T05:45:55.194Z,3.10
2018-08-25T05:48:23.282Z,3.30
2018-08-25T05:50:51.361Z,3.23
2018-08-25T05:53:19.440Z,2.93
2018-08-25T05:55:47.525Z,3.30
2018-08-25T05:58:15.605Z,2.70
2018-08-25T06:00:43.693Z,3.20
2018-08-25T06:03:11.791Z,3.00
2018-08-25T06:05:39.885Z,3.40
2018-08-25T06:08:07.957Z,2.97
2018-08-25T06:10:36.078Z,3.33
2018-08-25T06:13:04.158Z,3.00
2018-08-25T06:15:32.237Z,4.93
2018-08-25T06:18:00.322Z,2.80
2018-08-25T06:20:28.528Z,4.33
2018-08-25T06:22:56.629Z,3.70
2018-08-25T06:25:24.718Z,3.27
2018-08-25T06:27:52.857Z,3.97
2018-08-25T06:30:20.954Z,3.10
2018-08-25T06:32:49.029Z,2.83
2018-08-25T06:35:17.121Z,3.03
2018-08-25T06:37:45.217Z,3.20
2018-08-25T06:40:13.299Z,3.20
2018-08-25T06:42:41.433Z,3.43
2018-08-25T06:45:09.466Z,3.60
2018-08-25T06:47:37.541Z,3.97
2018-08-25T06:50:05.823Z,4.10
2018-08-25T06:52:33.889Z,3.73
2018-08-25T06:55:01.974Z,4.27
2018-08-25T06:57:30.085Z,3.67
2018-08-25T06:59:58.184Z,3.27
2018-08-25T07:02:26.274Z,3.30
2018-08-25T07:04:55.685Z,3.57
2018-08-25T07:07:23.775Z,3.27
2018-08-25T07:09:51.868Z,3.97
2018-08-25T07:12:19.936Z,4.40
2018-08-25T07:14:48.245Z,3.30
2018-08-25T07:17:16.336Z,3.57
2018-08-25T07:19:44.408Z,3.53
2018-08-25T07:22:12.501Z,3.40
2018-08-25T07:24:40.580Z,2.90
2018-08-25T07:27:08.654Z,3.87
2018-08-25T07:29:36.749Z,3.07
2018-08-25T07:32:05.223Z,2.83
2018-08-25T07:34:33.269Z,2.63
2018-08-25T07:37:01.342Z,2.90
2018-08-25T07:39:29.430Z,2.97
2018-08-25T07:41:57.505Z,3.20
2018-08-25T07:44:25.720Z,3.30
2018-08-25T07:46:53.806Z,3.40
2018-08-25T07:49:22.000Z,3.17
2018-08-25T07:51:51.045Z,3.07
2018-08-25T07:54:19.146Z,3.63
2018-08-25T07:56:49.052Z,3.17
2018-08-25T07:59:17.168Z,3.13
2018-08-25T08:04:47.826Z,3.00
2018-08-25T08:07:15.873Z,3.10
2018-08-25T08:09:43.963Z,2.57
2018-08-25T08:12:12.075Z,2.80
2018-08-25T08:14:40.149Z,3.13
2018-08-25T08:17:08.236Z,3.17
2018-08-25T08:19:36.309Z,2.10
2018-08-25T08:22:04.549Z,2.77
2018-08-25T08:24:32.946Z,2.50
2018-08-25T08:27:01.018Z,2.80
2018-08-25T08:29:29.100Z,2.20
2018-08-25T08:31:57.189Z,2.77
2018-08-25T08:34:25.290Z,2.63
2018-08-25T08:36:53.378Z,2.37
2018-08-25T08:39:21.516Z,2.10
2018-08-25T08:41:50.160Z,2.40
2018-08-25T08:44:18.280Z,2.20
2018-08-25T08:46:46.369Z,1.83
2018-08-25T08:49:14.433Z,2.67
2018-08-25T08:51:42.526Z,2.10
2018-08-25T08:54:10.597Z,2.60
2018-08-25T08:56:38.697Z,2.00
2018-08-25T08:59:06.790Z,2.20
2018-08-25T09:01:34.888Z,2.30
2018-08-25T09:04:03.378Z,2.57
2018-08-25T09:06:31.457Z,2.10
2018-08-25T09:08:59.529Z,1.65
2018-08-25T09:11:27.861Z,2.03
2018-08-25T09:13:56.472Z,2.07
2018-08-25T09:16:24.545Z,1.90
2018-08-25T09:18:52.621Z,1.70
2018-08-25T09:21:20.728Z,2.27
2018-08-25T09:23:48.848Z,1.83
2018-08-25T09:26:16.905Z,1.80
2018-08-25T09:28:45.017Z,2.40
2018-08-25T09:31:13.098Z,2.07
2018-08-25T09:33:41.178Z,2.47
2018-08-25T09:36:09.351Z,2.00
2018-08-25T09:38:37.345Z,1.93
2018-08-25T09:41:05.440Z,1.83
2018-08-25T09:43:33.510Z,1.90
2018-08-25T09:46:01.603Z,2.13
2018-08-25T09:48:29.668Z,2.47
2018-08-25T09:50:57.786Z,1.70
2018-08-25T09:53:25.910Z,2.30
2018-08-25T09:55:53.945Z,2.60
2018-08-25T09:58:22.022Z,2.10
2018-08-25T10:00:55.617Z,2.00
2018-08-25T10:03:23.694Z,1.70
2018-08-25T10:05:51.790Z,1.47
2018-08-25T10:08:19.880Z,1.90
2018-08-25T10:10:47.976Z,1.90
2018-08-25T10:13:16.045Z,1.63
2018-08-25T10:15:44.128Z,1.80
2018-08-25T10:18:12.206Z,1.70
2018-08-25T10:20:40.288Z,1.90
2018-08-25T10:23:08.482Z,1.60
2018-08-25T10:25:36.469Z,1.50
2018-08-25T10:28:04.581Z,1.90
2018-08-25T10:30:32.669Z,2.13
2018-08-25T10:33:00.758Z,1.40
2018-08-25T10:35:28.820Z,1.97
2018-08-25T10:37:56.906Z,1.60
2018-08-25T10:40:24.982Z,1.80
2018-08-25T10:42:53.102Z,1.80
2018-08-25T10:45:21.172Z,2.10
2018-08-25T10:47:49.255Z,1.50
2018-08-25T10:50:17.324Z,1.50
2018-08-25T10:52:45.417Z,1.60
2018-08-25T10:55:13.497Z,1.50
2018-08-25T10:57:41.585Z,2.03
2018-08-25T11:00:09.689Z,1.50
2018-08-25T11:02:37.749Z,1.23
2018-08-25T11:05:05.819Z,1.70
2018-08-25T11:07:33.916Z,1.13
2018-08-25T11:10:02.010Z,1.60
2018-08-25T11:12:30.309Z,1.90
2018-08-25T11:14:58.384Z,1.53
2018-08-25T11:17:26.488Z,1.40
2018-08-25T11:19:54.568Z,1.70
2018-08-25T11:22:22.688Z,1.30
2018-08-25T11:24:50.762Z,1.40
2018-08-25T11:27:19.070Z,1.53
2018-08-25T11:29:47.188Z,2.00
2018-08-25T11:32:15.237Z,1.33
2018-08-25T11:34:43.353Z,1.50
2018-08-25T11:37:11.448Z,1.40
2018-08-25T11:39:39.489Z,1.70
2018-08-25T11:42:07.577Z,1.23
2018-08-25T11:44:35.762Z,1.70
2018-08-25T11:47:09.327Z,1.23
2018-08-25T11:49:37.408Z,1.30
2018-08-25T11:52:05.520Z,1.37
2018-08-25T11:54:33.663Z,1.50
2018-08-25T11:57:02.045Z,1.90
2018-08-25T11:59:30.220Z,1.40
2018-08-25T12:01:58.321Z,1.30
2018-08-25T12:04:26.430Z,1.60
2018-08-25T12:06:54.517Z,1.30
2018-08-25T12:09:22.609Z,1.17
2018-08-25T12:11:50.687Z,1.20
2018-08-25T12:14:18.763Z,1.40
2018-08-25T12:16:47.001Z,1.53
2018-08-25T12:19:15.060Z,1.40
2018-08-25T12:21:43.349Z,1.10
2018-08-25T12:24:11.534Z,1.40
2018-08-25T12:26:39.610Z,1.27
2018-08-25T12:29:07.693Z,1.20
2018-08-25T12:31:35.786Z,1.20
2018-08-25T12:34:03.879Z,1.50
2018-08-25T12:36:31.969Z,1.10
2018-08-25T12:39:00.106Z,1.50
2018-08-25T12:41:28.137Z,1.57
2018-08-25T12:43:56.226Z,1.23
2018-08-25T12:46:24.302Z,1.10
2018-08-25T12:48:52.469Z,1.70
2018-08-25T12:51:20.453Z,0.90
2018-08-25T12:53:48.573Z,1.10
2018-08-25T12:56:16.658Z,1.10
2018-08-25T12:58:44.745Z,1.00
2018-08-25T13:01:12.824Z,1.10
2018-08-25T13:03:40.925Z,1.33
2018-08-25T13:06:09.238Z,1.00
2018-08-25T13:08:37.325Z,1.20
2018-08-25T13:11:05.416Z,1.20
2018-08-25T13:13:33.501Z,1.10
2018-08-25T13:16:01.826Z,1.10
2018-08-25T13:18:29.942Z,1.30
2018-08-25T13:20:58.025Z,1.17
2018-08-25T13:23:26.194Z,1.17
2018-08-25T13:25:54.207Z,1.20
2018-08-25T13:28:22.297Z,1.20
2018-08-25T13:30:50.415Z,1.27
2018-08-25T13:33:18.452Z,1.20
2018-08-25T13:35:46.538Z,1.20
2018-08-25T13:38:14.682Z,1.20
2018-08-25T13:40:42.701Z,1.10
2018-08-25T13:43:10.793Z,1.37
2018-08-25T13:45:38.873Z,1.17
2018-08-25T13:48:07.150Z,1.37
2018-08-25T13:50:35.276Z,1.10
2018-08-25T13:53:03.378Z,1.20
2018-08-25T13:55:31.450Z,1.17
2018-08-25T13:57:59.567Z,1.00
2018-08-25T14:00:27.644Z,1.47
2018-08-25T14:02:55.814Z,1.47
2018-08-25T14:05:23.894Z,1.10
2018-08-25T14:07:51.985Z,1.03
2018-08-25T14:10:20.047Z,1.20
2018-08-25T14:12:48.142Z,1.20
2018-08-25T14:15:16.426Z,1.00
2018-08-25T14:17:44.515Z,1.13
2018-08-25T14:20:12.621Z,1.10
2018-08-25T14:22:41.519Z,1.10
2018-08-25T14:25:09.602Z,0.90
2018-08-25T14:27:37.681Z,1.10
2018-08-25T14:30:06.374Z,1.07
2018-08-25T14:32:34.689Z,1.20
2018-08-25T14:35:02.769Z,1.03
2018-08-25T14:37:30.850Z,1.10
2018-08-25T14:39:58.934Z,1.10
2018-08-25T14:42:27.009Z,1.03
2018-08-25T14:44:55.096Z,1.20
2018-08-25T14:47:23.180Z,1.10
2018-08-25T14:49:51.254Z,1.10
2018-08-25T14:52:19.333Z,1.40
2018-08-25T14:54:47.424Z,1.23
2018-08-25T14:57:15.509Z,1.00
2018-08-25T14:59:43.593Z,1.03
2018-08-25T15:02:11.723Z,1.23
2018-08-25T15:04:39.821Z,1.00
2018-08-25T15:07:08.017Z,1.10
2018-08-25T15:09:36.107Z,1.30
2018-08-25T15:12:04.191Z,1.20
2018-08-25T15:14:32.289Z,1.00
2018-08-25T15:17:00.678Z,1.20
2018-08-25T15:19:28.774Z,1.00
2018-08-25T15:21:57.002Z,0.90
2018-08-25T15:24:25.111Z,1.23
2018-08-25T15:26:53.181Z,1.00
2018-08-25T15:29:21.277Z,1.13
2018-08-25T15:31:49.349Z,1.20
2018-08-25T15:34:17.641Z,1.00
2018-08-25T15:36:45.783Z,1.10
2018-08-25T15:39:14.541Z,1.40
2018-08-25T15:41:42.921Z,1.40
2018-08-25T15:44:11.316Z,2.10
2018-08-25T15:46:39.416Z,1.60
2018-08-25T15:49:07.741Z,1.47
2018-08-25T15:51:35.872Z,1.20
2018-08-25T15:54:04.261Z,1.60
2018-08-25T15:56:32.350Z,1.20
2018-08-25T15:59:00.445Z,1.70
2018-08-25T16:01:28.722Z,1.20
2018-08-25T16:03:56.862Z,1.10
2018-08-25T16:06:25.075Z,1.60
2018-08-25T16:08:53.151Z,1.70
2018-08-25T16:11:21.245Z,1.40
2018-08-25T16:13:49.327Z,1.33
2018-08-25T16:16:17.408Z,1.07
2018-08-25T16:18:45.480Z,1.30
2018-08-25T16:21:13.603Z,1.10
2018-08-25T16:23:41.671Z,1.30
2018-08-25T16:26:09.749Z,1.40
2018-08-25T16:28:37.841Z,1.10
2018-08-25T16:31:05.941Z,1.10
2018-08-25T16:33:34.019Z,1.60
2018-08-25T16:36:02.293Z,1.60
2018-08-25T16:38:30.367Z,1.17
2018-08-25T16:40:59.072Z,1.63
2018-08-25T16:43:27.185Z,1.67
2018-08-25T16:45:55.428Z,1.20
2018-08-25T16:48:23.513Z,1.67
2018-08-25T16:50:51.606Z,1.80
2018-08-25T16:53:19.679Z,1.97
2018-08-25T16:55:47.785Z,1.40
2018-08-25T16:58:15.841Z,1.50
2018-08-25T17:00:43.926Z,1.73
2018-08-25T17:03:12.019Z,1.70
2018-08-25T17:05:40.109Z,1.60
2018-08-25T17:08:08.190Z,1.30
2018-08-25T17:10:36.278Z,1.47
2018-08-25T17:13:04.662Z,1.30
2018-08-25T17:15:32.758Z,1.50
2018-08-25T17:18:00.839Z,1.63
2018-08-25T17:20:28.914Z,1.07
2018-08-25T17:22:56.993Z,1.33
2018-08-25T17:25:25.086Z,1.50
2018-08-25T17:27:53.183Z,1.50
2018-08-25T17:30:21.303Z,1.27
2018-08-25T17:32:49.413Z,1.63
2018-08-25T17:35:17.494Z,1.77
2018-08-25T17:37:45.576Z,1.87
2018-08-25T17:40:13.665Z,1.60
2018-08-25T17:42:41.748Z,1.83
2018-08-25T17:45:09.952Z,1.40
2018-08-25T17:47:37.990Z,1.50
2018-08-25T17:50:06.385Z,1.40
2018-08-25T17:52:34.487Z,1.50
2018-08-25T17:55:02.681Z,1.20
2018-08-25T17:57:30.892Z,1.63
2018-08-25T17:59:58.856Z,1.30
2018-08-25T18:02:26.968Z,1.40
2018-08-25T18:04:55.036Z,1.30
2018-08-25T18:07:23.104Z,1.40
2018-08-25T18:09:51.169Z,1.40
2018-08-25T18:12:19.247Z,1.20
2018-08-25T18:14:47.329Z,1.60
2018-08-25T18:17:15.406Z,1.90
2018-08-25T18:19:43.478Z,1.67
2018-08-25T18:22:11.893Z,1.80
2018-08-25T18:24:39.966Z,1.40
2018-08-25T18:27:08.042Z,1.40
2018-08-25T18:29:36.252Z,1.50
2018-08-25T18:32:04.407Z,1.57
2018-08-25T18:34:32.429Z,1.73
2018-08-25T18:37:00.698Z,1.80
2018-08-25T18:39:28.766Z,2.17
2018-08-25T18:41:56.847Z,2.10
2018-08-25T18:44:24.932Z,1.70
2018-08-25T18:46:52.993Z,2.23
2018-08-25T18:49:21.062Z,1.63
2018-08-25T18:51:49.154Z,1.53
2018-08-25T18:54:17.299Z,1.77
2018-08-25T18:56:45.320Z,1.53
2018-08-25T18:59:13.395Z,1.70
2018-08-25T19:01:41.599Z,1.80
2018-08-25T19:04:09.919Z,1.73
2018-08-25T19:06:38.006Z,1.87
2018-08-25T19:09:07.329Z,1.70
2018-08-25T19:11:35.408Z,2.23
2018-08-25T19:14:03.493Z,1.67
2018-08-25T19:16:31.596Z,1.70
2018-08-25T19:18:59.682Z,1.87
2018-08-25T19:21:27.764Z,1.90
2018-08-25T19:23:55.929Z,2.00
2018-08-25T19:26:24.002Z,1.50
2018-08-25T19:28:52.082Z,1.90
2018-08-25T19:31:20.177Z,1.53
2018-08-25T19:33:48.244Z,1.43
2018-08-25T19:36:16.317Z,1.90
2018-08-25T19:38:44.421Z,2.17
2018-08-25T19:41:12.510Z,2.00
2018-08-25T19:43:40.785Z,2.10
2018-08-25T19:46:08.854Z,2.20
2018-08-25T19:48:37.149Z,2.10
2018-08-25T19:51:05.312Z,2.00
2018-08-25T19:53:33.416Z,2.50
2018-08-25T19:56:01.477Z,1.80
2018-08-25T19:58:29.846Z,2.47
2018-08-25T20:00:57.934Z,2.40
2018-08-25T20:03:26.406Z,2.30
2018-08-25T20:05:54.514Z,2.10
2018-08-25T20:08:22.610Z,2.17
2018-08-25T20:10:50.677Z,2.00
2018-08-25T20:13:18.780Z,1.80
2018-08-25T20:15:46.863Z,1.83
2018-08-25T20:18:14.976Z,1.80
2018-08-25T20:20:43.015Z,1.57
2018-08-25T20:23:11.188Z,1.83
2018-08-25T20:25:39.261Z,1.67
2018-08-25T20:28:07.357Z,1.63
2018-08-25T20:30:35.472Z,1.50
2018-08-25T20:33:03.521Z,1.57
2018-08-25T20:35:31.616Z,1.80
2018-08-25T20:37:59.767Z,1.67
2018-08-25T20:40:27.853Z,1.87
2018-08-25T20:42:56.241Z,2.00
2018-08-25T20:45:24.332Z,1.60
2018-08-25T20:47:52.405Z,1.60
2018-08-25T20:50:20.478Z,2.33
2018-08-25T20:52:48.562Z,2.10
2018-08-25T20:55:16.646Z,1.80
2018-08-25T20:57:44.722Z,2.17
2018-08-25T21:00:12.801Z,1.70
2018-08-25T21:02:40.887Z,1.83
2018-08-25T21:05:08.968Z,1.50
2018-08-25T21:07:37.037Z,1.97
2018-08-25T21:10:06.093Z,1.73
2018-08-25T21:12:34.180Z,1.87
2018-08-25T21:15:02.348Z,2.07
2018-08-25T21:17:30.416Z,1.60
2018-08-25T21:19:58.846Z,1.80
2018-08-25T21:22:26.908Z,1.77
2018-08-25T21:24:54.996Z,1.90
2018-08-25T21:27:23.063Z,1.70
2018-08-25T21:29:51.142Z,1.93
2018-08-25T21:32:19.213Z,1.67
2018-08-25T21:34:47.301Z,1.70
2018-08-25T21:37:15.374Z,1.90
2018-08-25T21:39:43.490Z,1.80
2018-08-25T21:42:11.645Z,1.93
2018-08-25T21:44:39.728Z,2.17
2018-08-25T21:47:07.802Z,1.90
2018-08-25T21:49:35.895Z,1.80
2018-08-25T21:52:03.978Z,1.90
2018-08-25T21:54:32.070Z,2.20
2018-08-25T21:57:00.129Z,1.80
2018-08-25T21:59:28.204Z,2.33
2018-08-25T22:01:57.188Z,2.00
2018-08-25T22:04:25.466Z,1.97
2018-08-25T22:06:53.553Z,1.97
2018-08-25T22:09:21.637Z,2.30
2018-08-25T22:11:49.712Z,2.07
2018-08-25T22:14:17.814Z,2.47
2018-08-25T22:16:45.886Z,2.13
2018-08-25T22:19:13.973Z,2.10
2018-08-25T22:21:42.053Z,2.17
2018-08-25T22:24:10.129Z,2.17
2018-08-25T22:26:38.201Z,2.10
2018-08-25T22:29:06.285Z,2.20
2018-08-25T22:31:34.353Z,2.30
2018-08-25T22:34:02.425Z,2.40
2018-08-25T22:36:30.497Z,2.40
2018-08-25T22:38:58.590Z,2.33
2018-08-25T22:41:26.775Z,2.67
2018-08-25T22:43:54.793Z,2.40
2018-08-25T22:46:22.865Z,2.90
2018-08-25T22:48:51.150Z,2.73
2018-08-25T22:51:19.327Z,1.87
2018-08-25T22:53:47.470Z,2.27
2018-08-25T22:56:15.559Z,2.33
2018-08-25T22:58:43.626Z,2.60
2018-08-25T23:01:11.719Z,2.67
2018-08-25T23:03:39.785Z,3.00
2018-08-25T23:06:07.860Z,2.70
2018-08-25T23:08:35.942Z,2.63
2018-08-25T23:11:04.021Z,2.37
2018-08-25T23:13:32.108Z,2.77
2018-08-25T23:16:00.213Z,2.77
2018-08-25T23:18:28.407Z,2.60
2018-08-25T23:20:56.474Z,2.70
2018-08-25T23:23:24.545Z,2.27
2018-08-25T23:25:52.625Z,3.00
2018-08-25T23:28:20.754Z,2.67
2018-08-25T23:30:48.809Z,2.70
2018-08-25T23:33:16.911Z,2.70
2018-08-25T23:35:45.013Z,2.33
2018-08-25T23:38:13.093Z,2.30
2018-08-25T23:40:41.176Z,3.07
2018-08-25T23:43:09.255Z,2.90
2018-08-25T23:45:37.330Z,2.70
2018-08-25T23:48:05.498Z,2.60
2018-08-25T23:50:33.532Z,2.30
2018-08-25T23:53:01.629Z,2.40
2018-08-25T23:55:29.925Z,2.77
2018-08-25T23:57:58.002Z,3.10
